createdAt,value
2018-03-11T00:00:53.445Z,12.77
2018-03-11T00:01:53.408Z,12.86
2018-03-11T00:03:46.775Z,12.81
2018-03-11T00:04:46.758Z,12.86
2018-03-11T00:06:40.114Z,12.84
2018-03-11T00:07:40.065Z,12.96
2018-03-11T00:09:33.423Z,12.87
2018-03-11T00:10:33.376Z,12.86
2018-03-11T00:12:26.761Z,12.95
2018-03-11T00:13:26.739Z,12.90
2018-03-11T00:15:20.268Z,12.95
2018-03-11T00:16:20.228Z,12.93
2018-03-11T00:18:13.688Z,12.76
2018-03-11T00:19:13.645Z,12.83
2018-03-11T00:21:07.004Z,12.77
2018-03-11T00:22:06.965Z,12.66
2018-03-11T00:24:00.337Z,12.65
2018-03-11T00:25:00.293Z,12.68
2018-03-11T00:26:53.675Z,12.61
2018-03-11T00:27:53.634Z,12.55
2018-03-11T00:29:49.528Z,12.61
2018-03-11T00:30:49.477Z,12.59
2018-03-11T00:32:42.828Z,12.59
2018-03-11T00:33:42.791Z,12.61
2018-03-11T00:35:36.167Z,12.65
2018-03-11T00:36:36.123Z,12.62
2018-03-11T00:38:29.501Z,12.61
2018-03-11T00:39:29.453Z,12.62
2018-03-11T00:41:22.844Z,12.59
2018-03-11T00:42:22.819Z,12.61
2018-03-11T00:44:18.722Z,12.62
2018-03-11T00:45:18.678Z,12.54
2018-03-11T00:47:13.162Z,12.66
2018-03-11T00:48:13.120Z,12.63
2018-03-11T00:50:08.985Z,12.65
2018-03-11T00:51:08.965Z,12.61
2018-03-11T00:53:02.309Z,12.66
2018-03-11T00:54:02.269Z,12.68
2018-03-11T00:55:55.732Z,12.66
2018-03-11T00:56:55.684Z,12.54
2018-03-11T00:58:49.051Z,12.54
2018-03-11T00:59:49.007Z,12.55
2018-03-11T01:01:42.365Z,12.62
2018-03-11T01:02:42.324Z,12.62
2018-03-11T01:04:35.687Z,12.66
2018-03-11T01:05:35.643Z,12.62
2018-03-11T01:07:29.027Z,12.66
2018-03-11T01:08:28.992Z,12.69
2018-03-11T01:10:22.371Z,12.69
2018-03-11T01:11:22.324Z,12.71
2018-03-11T01:13:15.687Z,12.66
2018-03-11T01:14:15.643Z,12.62
2018-03-11T01:16:09.013Z,12.69
2018-03-11T01:17:08.978Z,12.68
2018-03-11T01:19:04.960Z,12.68
2018-03-11T01:20:04.888Z,12.61
2018-03-11T01:22:00.860Z,12.71
2018-03-11T01:23:00.767Z,12.72
2018-03-11T01:24:54.267Z,12.69
2018-03-11T01:25:54.227Z,12.69
2018-03-11T01:27:50.103Z,12.79
2018-03-11T01:28:50.059Z,12.73
2018-03-11T01:30:43.500Z,12.77
2018-03-11T01:31:43.458Z,12.73
2018-03-11T01:33:36.974Z,12.84
2018-03-11T01:34:36.894Z,12.73
2018-03-11T01:36:30.259Z,12.84
2018-03-11T01:37:30.217Z,12.76
2018-03-11T01:39:23.581Z,12.83
2018-03-11T01:40:23.600Z,12.81
2018-03-11T01:42:17.046Z,12.80
2018-03-11T01:43:17.033Z,12.76
2018-03-11T01:45:10.361Z,12.73
2018-03-11T01:46:10.322Z,12.84
2018-03-11T01:48:03.687Z,12.87
2018-03-11T01:49:03.641Z,12.80
2018-03-11T01:50:57.027Z,12.80
2018-03-11T01:51:56.969Z,12.81
2018-03-11T01:53:50.360Z,12.76
2018-03-11T01:54:50.276Z,12.79
2018-03-11T01:56:44.479Z,12.71
2018-03-11T01:57:44.436Z,12.71
2018-03-11T01:59:37.805Z,12.79
2018-03-11T02:00:37.766Z,12.71
2018-03-11T02:02:31.137Z,12.72
2018-03-11T02:03:31.094Z,12.68
2018-03-11T02:05:25.293Z,12.65
2018-03-11T02:06:25.250Z,12.66
2018-03-11T02:08:21.112Z,12.69
2018-03-11T02:09:21.086Z,12.65
2018-03-11T02:11:16.970Z,12.69
2018-03-11T02:12:16.929Z,12.68
2018-03-11T02:14:10.287Z,12.66
2018-03-11T02:15:10.248Z,12.65
2018-03-11T02:17:03.608Z,12.69
2018-03-11T02:18:04.167Z,12.68
2018-03-11T02:19:56.950Z,12.59
2018-03-11T02:20:56.951Z,12.50
2018-03-11T02:22:50.275Z,12.53
2018-03-11T02:23:50.233Z,12.46
2018-03-11T02:25:43.590Z,12.58
2018-03-11T02:26:43.550Z,12.40
2018-03-11T02:28:36.929Z,12.40
2018-03-11T02:29:36.872Z,12.44
2018-03-11T02:31:30.233Z,12.50
2018-03-11T02:32:30.196Z,12.40
2018-03-11T02:34:23.709Z,12.48
2018-03-11T02:35:23.667Z,12.48
2018-03-11T02:37:17.026Z,12.55
2018-03-11T02:38:16.987Z,12.58
2018-03-11T02:40:10.358Z,12.59
2018-03-11T02:41:10.316Z,12.63
2018-03-11T02:43:03.679Z,12.62
2018-03-11T02:44:03.631Z,12.66
2018-03-11T02:45:56.988Z,12.66
2018-03-11T02:46:56.950Z,12.69
2018-03-11T02:48:50.312Z,12.69
2018-03-11T02:49:50.276Z,12.68
2018-03-11T02:51:43.711Z,12.69
2018-03-11T02:52:43.680Z,12.66
2018-03-11T02:54:37.121Z,12.69
2018-03-11T02:55:37.067Z,12.68
2018-03-11T02:57:33.090Z,12.69
2018-03-11T02:58:33.055Z,12.66
2018-03-11T03:00:26.418Z,12.58
2018-03-11T03:01:26.374Z,12.65
2018-03-11T03:03:19.853Z,12.61
2018-03-11T03:04:19.817Z,12.61
2018-03-11T03:06:13.310Z,12.61
2018-03-11T03:07:14.235Z,12.51
2018-03-11T03:09:07.387Z,12.53
2018-03-11T03:10:07.353Z,12.51
2018-03-11T03:12:00.784Z,12.59
2018-03-11T03:13:00.738Z,12.53
2018-03-11T03:14:54.100Z,12.58
2018-03-11T03:15:54.065Z,12.61
2018-03-11T03:17:47.437Z,12.65
2018-03-11T03:18:47.383Z,12.63
2018-03-11T03:20:40.740Z,12.55
2018-03-11T03:21:40.695Z,12.73
2018-03-11T03:23:34.056Z,12.63
2018-03-11T03:24:34.016Z,12.68
2018-03-11T03:26:27.374Z,12.65
2018-03-11T03:27:27.334Z,12.55
2018-03-11T03:29:20.734Z,12.58
2018-03-11T03:30:20.699Z,12.53
2018-03-11T03:32:14.058Z,12.59
2018-03-11T03:33:14.011Z,12.59
2018-03-11T03:35:07.446Z,12.55
2018-03-11T03:36:07.411Z,12.54
2018-03-11T03:38:00.848Z,12.61
2018-03-11T03:39:00.805Z,12.61
2018-03-11T03:40:54.177Z,12.61
2018-03-11T03:41:54.127Z,12.66
2018-03-11T03:43:48.290Z,12.61
2018-03-11T03:44:48.243Z,12.62
2018-03-11T03:46:41.626Z,12.63
2018-03-11T03:47:41.561Z,12.63
2018-03-11T03:49:34.924Z,12.63
2018-03-11T03:50:34.883Z,12.54
2018-03-11T03:52:28.241Z,12.61
2018-03-11T03:53:28.195Z,12.63
2018-03-11T03:55:21.563Z,12.55
2018-03-11T03:56:21.521Z,12.55
2018-03-11T03:58:14.876Z,12.62
2018-03-11T03:59:14.837Z,12.51
2018-03-11T04:01:08.202Z,12.58
2018-03-11T04:02:08.159Z,12.59
2018-03-11T04:04:02.348Z,12.51
2018-03-11T04:05:02.305Z,12.54
2018-03-11T04:06:55.660Z,12.43
2018-03-11T04:07:55.624Z,12.47
2018-03-11T04:09:49.174Z,12.54
2018-03-11T04:10:49.125Z,12.51
2018-03-11T04:12:42.484Z,12.51
2018-03-11T04:13:42.442Z,12.50
2018-03-11T04:15:35.798Z,12.58
2018-03-11T04:16:35.755Z,12.53
2018-03-11T04:18:29.119Z,12.54
2018-03-11T04:19:29.079Z,12.59
2018-03-11T04:21:22.487Z,12.50
2018-03-11T04:22:22.408Z,12.44
2018-03-11T04:24:16.620Z,12.40
2018-03-11T04:25:16.572Z,12.40
2018-03-11T04:27:10.004Z,12.30
2018-03-11T04:28:09.964Z,12.32
2018-03-11T04:30:03.383Z,12.33
2018-03-11T04:31:03.336Z,12.25
2018-03-11T04:32:56.691Z,12.21
2018-03-11T04:33:56.650Z,12.17
2018-03-11T04:35:50.102Z,12.04
2018-03-11T04:36:50.055Z,12.03
2018-03-11T04:38:43.405Z,11.99
2018-03-11T04:39:43.376Z,11.97
2018-03-11T04:41:36.735Z,11.91
2018-03-11T04:42:36.691Z,11.93
2018-03-11T04:44:32.605Z,11.93
2018-03-11T04:45:32.547Z,11.93
2018-03-11T04:47:25.935Z,11.85
2018-03-11T04:48:25.892Z,11.82
2018-03-11T04:50:19.262Z,11.84
2018-03-11T04:51:19.218Z,11.87
2018-03-11T04:53:12.607Z,11.87
2018-03-11T04:54:12.568Z,11.79
2018-03-11T04:56:06.902Z,11.89
2018-03-11T04:57:06.867Z,11.84
2018-03-11T04:59:00.230Z,11.91
2018-03-11T05:00:00.191Z,11.87
2018-03-11T05:01:53.598Z,11.77
2018-03-11T05:02:53.523Z,11.71
2018-03-11T05:04:46.888Z,11.69
2018-03-11T05:05:46.841Z,11.67
2018-03-11T05:07:40.197Z,11.66
2018-03-11T05:08:40.154Z,11.59
2018-03-11T05:10:33.511Z,11.55
2018-03-11T05:11:33.474Z,11.61
2018-03-11T05:13:26.861Z,11.48
2018-03-11T05:14:26.823Z,11.54
2018-03-11T05:16:20.237Z,11.56
2018-03-11T05:17:20.202Z,11.67
2018-03-11T05:19:16.076Z,11.64
2018-03-11T05:20:16.037Z,11.59
2018-03-11T05:22:11.898Z,11.52
2018-03-11T05:23:11.855Z,11.52
2018-03-11T05:25:05.278Z,11.48
2018-03-11T05:26:05.222Z,11.40
2018-03-11T05:27:58.572Z,11.48
2018-03-11T05:28:58.533Z,11.48
2018-03-11T05:30:54.409Z,11.37
2018-03-11T05:31:54.350Z,11.52
2018-03-11T05:33:50.206Z,11.37
2018-03-11T05:34:50.166Z,11.54
2018-03-11T05:36:43.536Z,11.48
2018-03-11T05:37:43.492Z,11.54
2018-03-11T05:39:36.855Z,11.54
2018-03-11T05:40:36.815Z,11.52
2018-03-11T05:42:32.703Z,11.52
2018-03-11T05:43:32.647Z,11.49
2018-03-11T05:45:26.012Z,11.52
2018-03-11T05:46:25.976Z,11.49
2018-03-11T05:48:20.266Z,11.48
2018-03-11T05:49:20.223Z,11.38
2018-03-11T05:51:13.747Z,11.23
2018-03-11T05:52:13.681Z,11.19
2018-03-11T05:54:07.044Z,11.15
2018-03-11T05:55:07.004Z,11.04
2018-03-11T05:57:00.480Z,10.98
2018-03-11T05:58:00.442Z,11.04
2018-03-11T05:59:56.312Z,10.85
2018-03-11T06:00:56.271Z,10.90
2018-03-11T06:02:49.656Z,10.90
2018-03-11T06:03:49.614Z,10.95
2018-03-11T06:05:45.490Z,10.93
2018-03-11T06:06:45.447Z,10.91
2018-03-11T06:08:38.848Z,10.97
2018-03-11T06:09:38.789Z,10.94
2018-03-11T06:11:32.185Z,10.97
2018-03-11T06:12:32.139Z,10.97
2018-03-11T06:14:26.508Z,10.87
2018-03-11T06:15:26.469Z,10.93
2018-03-11T06:17:20.865Z,10.83
2018-03-11T06:18:20.818Z,10.83
2018-03-11T06:20:15.167Z,10.80
2018-03-11T06:21:15.124Z,10.76
2018-03-11T06:23:08.489Z,10.72
2018-03-11T06:24:08.451Z,10.65
2018-03-11T06:26:01.859Z,10.57
2018-03-11T06:27:01.763Z,10.46
2018-03-11T06:28:55.122Z,10.49
2018-03-11T06:29:55.080Z,10.55
2018-03-11T06:31:51.953Z,10.48
2018-03-11T06:32:51.906Z,10.49
2018-03-11T06:34:45.294Z,10.43
2018-03-11T06:35:45.248Z,10.57
2018-03-11T06:37:38.677Z,10.67
2018-03-11T06:38:38.634Z,10.76
2018-03-11T06:40:33.814Z,10.90
2018-03-11T06:41:33.773Z,10.85
2018-03-11T06:43:29.662Z,10.85
2018-03-11T06:44:29.613Z,10.95
2018-03-11T06:46:25.474Z,10.98
2018-03-11T06:47:25.437Z,10.97
2018-03-11T06:49:21.291Z,10.97
2018-03-11T06:50:21.251Z,11.08
2018-03-11T06:52:17.228Z,11.20
2018-03-11T06:53:17.128Z,11.25
2018-03-11T06:55:14.018Z,11.30
2018-03-11T06:56:13.956Z,11.30
2018-03-11T06:58:10.863Z,11.46
2018-03-11T06:59:10.787Z,11.41
2018-03-11T07:01:04.157Z,11.52
2018-03-11T07:02:04.113Z,11.54
2018-03-11T07:04:00.990Z,11.56
2018-03-11T07:05:00.948Z,11.71
2018-03-11T07:06:54.424Z,11.76
2018-03-11T07:07:54.378Z,11.93
2018-03-11T07:09:47.738Z,11.99
2018-03-11T07:10:47.711Z,12.05
2018-03-11T07:12:41.062Z,12.18
2018-03-11T07:13:41.017Z,12.50
2018-03-11T07:15:35.212Z,13.38
2018-03-11T07:16:35.168Z,13.98
2018-03-11T07:18:28.536Z,14.85
2018-03-11T07:19:28.494Z,15.30
2018-03-11T07:21:21.861Z,16.13
2018-03-11T07:22:21.816Z,16.47
2018-03-11T07:24:15.169Z,17.04
2018-03-11T07:25:15.132Z,17.38
2018-03-11T07:27:08.540Z,17.78
2018-03-11T07:28:08.514Z,18.11
2018-03-11T07:30:02.655Z,18.48
2018-03-11T07:31:02.612Z,18.74
2018-03-11T07:32:55.968Z,19.16
2018-03-11T07:33:55.930Z,19.30
2018-03-11T07:35:49.303Z,19.15
2018-03-11T07:36:49.264Z,18.75
2018-03-11T07:38:42.627Z,17.59
2018-03-11T07:39:42.588Z,17.52
2018-03-11T07:41:35.977Z,17.43
2018-03-11T07:42:35.919Z,17.38
2018-03-11T07:44:31.801Z,17.16
2018-03-11T07:45:31.763Z,17.35
2018-03-11T07:47:25.121Z,17.28
2018-03-11T07:48:25.104Z,17.32
2018-03-11T07:50:19.489Z,17.19
2018-03-11T07:51:19.433Z,17.19
2018-03-11T07:53:15.380Z,17.19
2018-03-11T07:54:15.343Z,17.17
2018-03-11T07:56:08.711Z,17.19
2018-03-11T07:57:08.702Z,17.12
2018-03-11T07:59:02.042Z,17.02
2018-03-11T08:00:02.007Z,16.95
2018-03-11T08:01:55.375Z,16.94
2018-03-11T08:02:55.334Z,16.98
2018-03-11T08:04:48.716Z,16.92
2018-03-11T08:05:48.691Z,16.90
2018-03-11T08:07:43.058Z,16.83
2018-03-11T08:08:43.021Z,16.87
2018-03-11T08:10:36.387Z,16.77
2018-03-11T08:11:36.351Z,16.73
2018-03-11T08:13:29.712Z,16.69
2018-03-11T08:14:29.685Z,16.70
2018-03-11T08:16:23.038Z,16.62
2018-03-11T08:17:23.005Z,16.74
2018-03-11T08:19:16.366Z,16.67
2018-03-11T08:20:16.341Z,16.70
2018-03-11T08:22:09.716Z,16.99
2018-03-11T08:23:09.658Z,17.04
2018-03-11T08:25:03.032Z,17.13
2018-03-11T08:26:02.996Z,17.24
2018-03-11T08:27:56.373Z,17.17
2018-03-11T08:28:56.334Z,17.32
2018-03-11T08:30:52.228Z,17.35
2018-03-11T08:31:52.239Z,17.30
2018-03-11T08:33:46.620Z,17.32
2018-03-11T08:34:46.587Z,17.37
2018-03-11T08:36:39.964Z,17.34
2018-03-11T08:37:39.927Z,17.41
2018-03-11T08:39:35.817Z,17.56
2018-03-11T08:40:35.788Z,17.53
2018-03-11T08:42:30.170Z,17.59
2018-03-11T08:43:30.135Z,17.66
2018-03-11T08:45:23.511Z,17.56
2018-03-11T08:46:23.477Z,17.59
2018-03-11T08:48:16.995Z,17.52
2018-03-11T08:49:16.948Z,17.54
2018-03-11T08:51:10.315Z,17.65
2018-03-11T08:52:10.282Z,17.73
2018-03-11T08:54:03.677Z,17.75
2018-03-11T08:55:03.654Z,17.69
2018-03-11T08:56:58.025Z,17.75
2018-03-11T08:57:57.986Z,17.62
2018-03-11T08:59:52.375Z,17.54
2018-03-11T09:00:52.330Z,17.62
2018-03-11T09:02:46.701Z,17.49
2018-03-11T09:03:46.666Z,17.53
2018-03-11T09:05:41.844Z,17.39
2018-03-11T09:06:41.796Z,17.39
2018-03-11T09:08:35.178Z,17.37
2018-03-11T09:09:35.138Z,17.28
2018-03-11T09:11:29.518Z,17.25
2018-03-11T09:12:29.476Z,16.95
2018-03-11T09:14:23.854Z,16.87
2018-03-11T09:15:23.818Z,16.88
2018-03-11T09:17:18.209Z,16.83
2018-03-11T09:18:18.153Z,16.94
2018-03-11T09:20:12.532Z,17.09
2018-03-11T09:21:12.492Z,17.16
2018-03-11T09:23:06.867Z,17.25
2018-03-11T09:24:06.833Z,17.13
2018-03-11T09:26:02.877Z,17.34
2018-03-11T09:27:02.833Z,17.31
2018-03-11T09:28:56.710Z,17.52
2018-03-11T09:29:56.680Z,17.56
2018-03-11T09:31:51.075Z,17.63
2018-03-11T09:32:51.032Z,17.62
2018-03-11T09:34:45.409Z,17.52
2018-03-11T09:35:45.398Z,17.52
2018-03-11T09:37:39.756Z,17.37
2018-03-11T09:38:39.711Z,17.35
2018-03-11T09:40:34.096Z,17.32
2018-03-11T09:41:34.054Z,17.19
2018-03-11T09:43:28.452Z,17.09
2018-03-11T09:44:28.431Z,17.22
2018-03-11T09:46:22.782Z,17.19
2018-03-11T09:47:22.738Z,17.24
2018-03-11T09:49:19.614Z,17.35
2018-03-11T09:50:19.577Z,17.35
2018-03-11T09:52:13.955Z,17.47
2018-03-11T09:53:13.913Z,17.54
2018-03-11T09:55:08.339Z,17.75
2018-03-11T09:56:08.300Z,17.75
2018-03-11T09:58:02.685Z,17.72
2018-03-11T09:59:02.638Z,17.81
2018-03-11T10:00:57.021Z,17.99
2018-03-11T10:01:56.976Z,18.02
2018-03-11T10:03:51.353Z,17.99
2018-03-11T10:04:51.319Z,18.02
2018-03-11T10:06:48.204Z,18.15
2018-03-11T10:07:48.162Z,18.11
2018-03-11T10:09:42.543Z,18.26
2018-03-11T10:10:42.499Z,18.12
2018-03-11T10:12:36.897Z,18.12
2018-03-11T10:13:36.839Z,18.23
2018-03-11T10:15:31.228Z,18.24
2018-03-11T10:16:31.177Z,18.20
2018-03-11T10:18:25.611Z,18.52
2018-03-11T10:19:25.521Z,18.54
2018-03-11T10:21:19.908Z,18.64
2018-03-11T10:22:19.855Z,18.70
2018-03-11T10:24:14.238Z,18.76
2018-03-11T10:25:14.196Z,18.74
2018-03-11T10:27:08.607Z,18.75
2018-03-11T10:28:08.557Z,18.75
2018-03-11T10:30:02.912Z,18.63
2018-03-11T10:31:02.877Z,18.61
2018-03-11T10:32:57.261Z,18.43
2018-03-11T10:33:57.208Z,18.34
2018-03-11T10:35:51.605Z,18.31
2018-03-11T10:36:51.570Z,18.26
2018-03-11T10:38:45.952Z,18.38
2018-03-11T10:39:45.914Z,18.39
2018-03-11T10:41:40.282Z,18.56
2018-03-11T10:42:40.254Z,18.56
2018-03-11T10:44:34.662Z,18.71
2018-03-11T10:45:34.585Z,18.74
2018-03-11T10:47:29.002Z,18.93
2018-03-11T10:48:28.965Z,18.98
2018-03-11T10:50:23.339Z,18.98
2018-03-11T10:51:23.328Z,19.17
2018-03-11T10:53:17.679Z,19.17
2018-03-11T10:54:17.642Z,19.16
2018-03-11T10:56:12.869Z,19.22
2018-03-11T10:57:12.840Z,19.34
2018-03-11T10:59:07.207Z,19.42
2018-03-11T11:00:07.285Z,19.44
2018-03-11T11:02:01.575Z,19.50
2018-03-11T11:03:01.512Z,19.57
2018-03-11T11:04:55.913Z,19.72
2018-03-11T11:05:55.858Z,19.81
2018-03-11T11:07:52.741Z,19.97
2018-03-11T11:08:52.705Z,20.02
2018-03-11T11:10:47.094Z,20.07
2018-03-11T11:11:47.045Z,20.09
2018-03-11T11:13:43.930Z,20.08
2018-03-11T11:14:43.903Z,20.14
2018-03-11T11:16:38.277Z,20.23
2018-03-11T11:17:38.832Z,20.25
2018-03-11T11:19:35.125Z,20.25
2018-03-11T11:20:35.082Z,20.19
2018-03-11T11:22:29.463Z,20.17
2018-03-11T11:23:29.422Z,20.18
2018-03-11T11:25:24.671Z,20.09
2018-03-11T11:26:24.635Z,20.18
2018-03-11T11:28:22.380Z,20.30
2018-03-11T11:29:22.343Z,20.30
2018-03-11T11:31:19.214Z,20.26
2018-03-11T11:32:19.180Z,20.29
2018-03-11T11:34:13.553Z,20.25
2018-03-11T11:35:13.517Z,20.26
2018-03-11T11:37:07.899Z,20.30
2018-03-11T11:38:07.858Z,20.19
2018-03-11T11:40:02.240Z,20.18
2018-03-11T11:41:02.206Z,20.15
2018-03-11T11:42:59.082Z,20.07
2018-03-11T11:43:59.041Z,20.09
2018-03-11T11:45:53.422Z,20.07
2018-03-11T11:46:53.393Z,20.17
2018-03-11T11:48:47.862Z,20.23
2018-03-11T11:49:47.724Z,20.33
2018-03-11T11:51:42.100Z,20.36
2018-03-11T11:52:42.073Z,20.42
2018-03-11T11:54:36.458Z,20.44
2018-03-11T11:55:36.408Z,20.44
2018-03-11T11:57:30.824Z,20.34
2018-03-11T11:58:30.767Z,20.44
2018-03-11T12:00:25.136Z,20.53
2018-03-11T12:01:25.097Z,20.41
2018-03-11T12:03:21.989Z,20.42
2018-03-11T12:04:21.952Z,20.36
2018-03-11T12:06:16.326Z,20.39
2018-03-11T12:07:16.296Z,20.32
2018-03-11T12:09:11.487Z,20.36
2018-03-11T12:10:11.448Z,20.32
2018-03-11T12:12:05.879Z,20.42
2018-03-11T12:13:05.793Z,20.42
2018-03-11T12:15:02.683Z,20.37
2018-03-11T12:16:02.635Z,20.23
2018-03-11T12:17:57.031Z,20.30
2018-03-11T12:18:56.981Z,20.29
2018-03-11T12:20:51.365Z,20.23
2018-03-11T12:21:51.326Z,20.30
2018-03-11T12:23:48.211Z,20.22
2018-03-11T12:24:48.174Z,20.22
2018-03-11T12:26:42.549Z,20.12
2018-03-11T12:27:42.512Z,20.17
2018-03-11T12:29:36.920Z,20.23
2018-03-11T12:30:36.864Z,20.22
2018-03-11T12:32:33.748Z,20.25
2018-03-11T12:33:33.711Z,20.27
2018-03-11T12:35:28.108Z,20.32
2018-03-11T12:36:28.052Z,20.26
2018-03-11T12:38:22.436Z,20.27
2018-03-11T12:39:22.402Z,20.23
2018-03-11T12:41:20.100Z,20.26
2018-03-11T12:42:20.065Z,20.23
2018-03-11T12:44:14.436Z,20.17
2018-03-11T12:45:14.402Z,20.19
2018-03-11T12:47:08.833Z,20.11
2018-03-11T12:48:08.753Z,20.09
2018-03-11T12:50:05.616Z,20.09
2018-03-11T12:51:05.587Z,20.08
2018-03-11T12:52:59.985Z,19.93
2018-03-11T12:53:59.921Z,19.96
2018-03-11T12:55:54.299Z,19.93
2018-03-11T12:56:54.267Z,19.86
2018-03-11T12:58:51.149Z,19.81
2018-03-11T12:59:51.109Z,19.67
2018-03-11T13:01:46.351Z,19.71
2018-03-11T13:02:46.305Z,19.64
2018-03-11T13:04:40.687Z,19.59
2018-03-11T13:05:40.655Z,19.56
2018-03-11T13:07:35.047Z,19.63
2018-03-11T13:08:34.984Z,19.54
2018-03-11T13:10:29.365Z,19.52
2018-03-11T13:11:29.322Z,19.53
2018-03-11T13:13:23.702Z,19.45
2018-03-11T13:14:23.665Z,19.39
2018-03-11T13:16:18.061Z,19.54
2018-03-11T13:17:18.001Z,19.56
2018-03-11T13:19:12.377Z,19.39
2018-03-11T13:20:12.340Z,19.37
2018-03-11T13:22:09.222Z,19.39
2018-03-11T13:23:09.186Z,19.47
2018-03-11T13:25:03.564Z,19.38
2018-03-11T13:26:03.525Z,19.50
2018-03-11T13:28:00.404Z,19.32
2018-03-11T13:29:00.369Z,19.34
2018-03-11T13:30:54.829Z,19.27
2018-03-11T13:31:54.708Z,19.24
2018-03-11T13:33:49.105Z,19.34
2018-03-11T13:34:49.046Z,19.32
2018-03-11T13:36:43.423Z,19.34
2018-03-11T13:37:43.391Z,19.30
2018-03-11T13:39:37.774Z,19.37
2018-03-11T13:40:37.736Z,19.35
2018-03-11T13:42:32.142Z,19.37
2018-03-11T13:43:32.078Z,19.39
2018-03-11T13:45:26.445Z,19.31
2018-03-11T13:46:26.459Z,19.45
2018-03-11T13:48:20.798Z,19.44
2018-03-11T13:49:20.753Z,19.53
2018-03-11T13:51:15.163Z,19.42
2018-03-11T13:52:15.085Z,19.54
2018-03-11T13:54:09.462Z,19.45
2018-03-11T13:55:09.425Z,19.47
2018-03-11T13:57:03.799Z,19.49
2018-03-11T13:58:03.767Z,19.44
2018-03-11T13:59:58.179Z,19.44
2018-03-11T14:00:58.105Z,19.42
2018-03-11T14:02:52.472Z,19.47
2018-03-11T14:03:52.440Z,19.44
2018-03-11T14:05:46.819Z,19.44
2018-03-11T14:06:46.779Z,19.49
2018-03-11T14:08:43.659Z,19.45
2018-03-11T14:09:43.623Z,19.41
2018-03-11T14:11:37.997Z,19.38
2018-03-11T14:12:37.959Z,19.39
2018-03-11T14:14:32.360Z,19.41
2018-03-11T14:15:32.300Z,19.47
2018-03-11T14:17:26.681Z,19.45
2018-03-11T14:18:26.642Z,19.44
2018-03-11T14:20:21.028Z,19.44
2018-03-11T14:21:20.976Z,19.44
2018-03-11T14:23:15.350Z,19.49
2018-03-11T14:24:15.315Z,19.44
2018-03-11T14:26:12.250Z,19.41
2018-03-11T14:27:12.177Z,19.39
2018-03-11T14:29:06.561Z,19.42
2018-03-11T14:30:06.520Z,19.41
2018-03-11T14:32:00.898Z,19.42
2018-03-11T14:33:00.864Z,19.47
2018-03-11T14:34:54.223Z,19.53
2018-03-11T14:35:54.196Z,19.50
2018-03-11T14:38:00.313Z,19.38
2018-03-11T14:39:00.292Z,19.45
2018-03-11T14:40:54.639Z,19.38
2018-03-11T14:41:54.580Z,19.47
2018-03-11T14:43:49.516Z,19.38
2018-03-11T14:44:48.928Z,19.41
2018-03-11T14:46:43.304Z,19.42
2018-03-11T14:47:43.262Z,19.63
2018-03-11T14:49:37.638Z,19.57
2018-03-11T14:50:37.615Z,19.53
2018-03-11T14:52:31.976Z,19.60
2018-03-11T14:53:31.936Z,19.54
2018-03-11T14:55:26.351Z,19.57
2018-03-11T14:56:26.285Z,19.60
2018-03-11T14:58:20.656Z,19.70
2018-03-11T14:59:20.623Z,19.67
2018-03-11T15:01:14.993Z,19.60
2018-03-11T15:02:14.953Z,19.60
2018-03-11T15:04:09.365Z,19.64
2018-03-11T15:05:09.295Z,19.54
2018-03-11T15:07:03.672Z,19.52
2018-03-11T15:08:03.634Z,19.52
2018-03-11T15:09:58.013Z,19.50
2018-03-11T15:10:57.972Z,19.49
2018-03-11T15:12:52.392Z,19.47
2018-03-11T15:13:52.315Z,19.38
2018-03-11T15:15:46.683Z,19.50
2018-03-11T15:16:46.650Z,19.44
2018-03-11T15:18:41.030Z,19.34
2018-03-11T15:19:40.995Z,19.39
2018-03-11T15:21:37.886Z,19.45
2018-03-11T15:22:37.843Z,19.39
2018-03-11T15:24:32.218Z,19.37
2018-03-11T15:25:32.182Z,19.42
2018-03-11T15:27:26.562Z,19.23
2018-03-11T15:28:26.574Z,19.39
2018-03-11T15:30:20.890Z,19.35
2018-03-11T15:31:20.868Z,19.20
2018-03-11T15:33:15.245Z,19.31
2018-03-11T15:34:15.195Z,19.30
2018-03-11T15:36:09.571Z,19.24
2018-03-11T15:37:09.534Z,19.30
2018-03-11T15:39:03.953Z,19.30
2018-03-11T15:40:03.872Z,19.26
2018-03-11T15:41:58.249Z,19.23
2018-03-11T15:42:58.210Z,19.26
2018-03-11T15:44:52.587Z,19.30
2018-03-11T15:45:52.546Z,19.27
2018-03-11T15:47:46.921Z,19.26
2018-03-11T15:48:46.884Z,19.26
2018-03-11T15:50:41.270Z,19.27
2018-03-11T15:51:41.238Z,19.26
2018-03-11T15:53:36.610Z,19.27
2018-03-11T15:54:36.577Z,19.32
2018-03-11T15:56:30.955Z,19.32
2018-03-11T15:57:30.938Z,19.31
2018-03-11T15:59:25.296Z,19.27
2018-03-11T16:00:25.251Z,19.24
2018-03-11T16:02:19.641Z,19.32
2018-03-11T16:03:19.601Z,19.26
2018-03-11T16:05:13.977Z,19.27
2018-03-11T16:06:13.942Z,19.26
2018-03-11T16:08:08.320Z,19.26
2018-03-11T16:09:08.282Z,19.23
2018-03-11T16:11:02.661Z,19.32
2018-03-11T16:12:02.618Z,19.24
2018-03-11T16:13:57.011Z,19.26
2018-03-11T16:14:56.958Z,19.20
2018-03-11T16:16:51.331Z,19.19
2018-03-11T16:17:51.300Z,19.16
2018-03-11T16:19:45.674Z,19.15
2018-03-11T16:20:45.639Z,19.17
2018-03-11T16:22:40.007Z,19.09
2018-03-11T16:23:39.974Z,19.09
2018-03-11T16:25:34.376Z,19.04
2018-03-11T16:26:34.320Z,19.01
2018-03-11T16:28:28.690Z,18.94
2018-03-11T16:29:28.652Z,18.94
2018-03-11T16:31:23.249Z,18.85
2018-03-11T16:32:23.207Z,18.91
2018-03-11T16:34:17.586Z,18.91
2018-03-11T16:35:17.554Z,18.85
2018-03-11T16:37:12.780Z,18.88
2018-03-11T16:38:12.736Z,18.75
2018-03-11T16:40:07.167Z,18.67
2018-03-11T16:41:07.073Z,18.74
2018-03-11T16:43:01.463Z,18.75
2018-03-11T16:44:01.415Z,18.66
2018-03-11T16:45:55.823Z,18.71
2018-03-11T16:46:55.790Z,18.56
2018-03-11T16:48:50.164Z,18.67
2018-03-11T16:49:50.123Z,18.63
2018-03-11T16:51:44.511Z,18.58
2018-03-11T16:52:44.473Z,18.61
2018-03-11T16:54:38.853Z,18.61
2018-03-11T16:55:38.810Z,18.61
2018-03-11T16:57:33.191Z,18.54
2018-03-11T16:58:33.150Z,18.49
2018-03-11T17:00:27.527Z,18.49
2018-03-11T17:01:27.493Z,18.56
2018-03-11T17:03:21.864Z,18.42
2018-03-11T17:04:21.825Z,18.39
2018-03-11T17:06:16.200Z,18.31
2018-03-11T17:07:16.168Z,18.30
2018-03-11T17:09:10.568Z,18.31
2018-03-11T17:10:10.519Z,18.30
2018-03-11T17:12:04.945Z,18.21
2018-03-11T17:13:04.845Z,18.23
2018-03-11T17:15:10.958Z,18.21
2018-03-11T17:16:10.917Z,18.11
2018-03-11T17:18:07.858Z,18.15
2018-03-11T17:19:07.751Z,18.13
2018-03-11T17:21:03.029Z,18.02
2018-03-11T17:22:03.198Z,18.03
2018-03-11T17:23:57.377Z,18.02
2018-03-11T17:24:57.328Z,17.94
2018-03-11T17:26:51.723Z,17.97
2018-03-11T17:27:51.664Z,17.87
2018-03-11T17:29:45.048Z,17.83
2018-03-11T17:30:45.008Z,17.81
2018-03-11T17:32:39.401Z,17.86
2018-03-11T17:33:39.354Z,17.84
2018-03-11T17:35:32.717Z,17.86
2018-03-11T17:36:32.681Z,17.83
2018-03-11T17:38:26.063Z,17.83
2018-03-11T17:39:26.063Z,17.81
2018-03-11T17:41:20.414Z,17.78
2018-03-11T17:42:20.377Z,17.78
2018-03-11T17:44:14.846Z,17.71
2018-03-11T17:45:14.721Z,17.75
2018-03-11T17:47:09.136Z,17.69
2018-03-11T17:48:09.098Z,17.73
2018-03-11T17:50:03.439Z,17.62
2018-03-11T17:51:03.397Z,17.62
2018-03-11T17:52:57.776Z,17.66
2018-03-11T17:53:57.785Z,17.57
2018-03-11T17:55:52.116Z,17.54
2018-03-11T17:56:52.081Z,17.59
2018-03-11T17:58:48.989Z,17.63
2018-03-11T17:59:48.972Z,17.65
2018-03-11T18:01:43.350Z,17.62
2018-03-11T18:02:43.314Z,17.62
2018-03-11T18:04:37.707Z,17.57
2018-03-11T18:05:37.662Z,17.62
2018-03-11T18:07:32.056Z,17.62
2018-03-11T18:08:32.022Z,17.57
2018-03-11T18:10:26.381Z,17.59
2018-03-11T18:11:26.347Z,17.54
2018-03-11T18:13:20.725Z,17.53
2018-03-11T18:14:20.732Z,17.57
2018-03-11T18:16:15.064Z,17.62
2018-03-11T18:17:15.027Z,17.56
2018-03-11T18:19:09.009Z,17.57
2018-03-11T18:20:08.967Z,17.47
2018-03-11T18:22:05.847Z,17.56
2018-03-11T18:23:05.809Z,17.46
2018-03-11T18:25:00.187Z,17.45
2018-03-11T18:26:00.148Z,17.49
2018-03-11T18:27:54.532Z,17.50
2018-03-11T18:28:54.483Z,17.47
2018-03-11T18:30:51.404Z,17.46
2018-03-11T18:31:51.332Z,17.45
2018-03-11T18:33:48.216Z,17.34
2018-03-11T18:34:48.167Z,17.30
2018-03-11T18:36:42.559Z,17.31
2018-03-11T18:37:42.505Z,17.20
2018-03-11T18:39:37.760Z,17.16
2018-03-11T18:40:37.725Z,17.19
2018-03-11T18:42:32.465Z,17.17